createdAt,value
2018-11-06T00:00:42.180Z,10.86
2018-11-06T00:03:15.592Z,10.87
2018-11-06T00:05:43.891Z,10.90
2018-11-06T00:08:12.129Z,10.92
2018-11-06T00:10:40.389Z,10.93
2018-11-06T00:13:08.602Z,10.85
2018-11-06T00:15:36.870Z,10.99
2018-11-06T00:18:05.271Z,10.57
2018-11-06T00:20:33.493Z,10.68
2018-11-06T00:23:01.725Z,10.63
2018-11-06T00:25:29.989Z,10.78
2018-11-06T00:27:58.222Z,10.50
2018-11-06T00:30:26.442Z,10.61
2018-11-06T00:32:54.676Z,10.56
2018-11-06T00:35:22.902Z,10.59
2018-11-06T00:37:51.222Z,10.41
2018-11-06T00:40:19.442Z,10.46
2018-11-06T00:42:47.654Z,10.60
2018-11-06T00:45:16.725Z,10.42
2018-11-06T00:47:44.933Z,10.41
2018-11-06T00:50:13.722Z,10.30
2018-11-06T00:52:42.989Z,10.35
2018-11-06T00:55:11.389Z,10.26
2018-11-06T00:57:41.366Z,10.24
2018-11-06T01:00:12.097Z,10.20
2018-11-06T01:02:40.365Z,10.06
2018-11-06T01:05:10.185Z,9.94
2018-11-06T01:07:38.408Z,9.92
2018-11-06T01:10:08.073Z,9.91
2018-11-06T01:12:36.378Z,10.13
2018-11-06T01:15:05.026Z,9.93
2018-11-06T01:17:33.318Z,10.06
2018-11-06T01:20:01.545Z,10.22
2018-11-06T01:22:30.577Z,10.10
2018-11-06T01:24:59.999Z,10.10
2018-11-06T01:27:28.366Z,10.06
2018-11-06T01:29:56.682Z,10.02
2018-11-06T01:32:24.903Z,10.13
2018-11-06T01:34:53.111Z,10.07
2018-11-06T01:37:21.346Z,10.13
2018-11-06T01:39:49.585Z,10.16
2018-11-06T01:42:17.821Z,10.10
2018-11-06T01:44:46.038Z,10.09
2018-11-06T01:47:14.265Z,10.00
2018-11-06T01:49:42.509Z,10.09
2018-11-06T01:52:10.730Z,9.93
2018-11-06T01:54:38.970Z,9.92
2018-11-06T01:57:07.166Z,9.79
2018-11-06T01:59:35.369Z,9.75
2018-11-06T02:02:03.596Z,9.83
2018-11-06T02:04:31.817Z,10.08
2018-11-06T02:07:00.062Z,10.04
2018-11-06T02:09:28.267Z,10.12
2018-11-06T02:11:56.510Z,10.02
2018-11-06T02:14:24.734Z,9.77
2018-11-06T02:16:52.946Z,9.75
2018-11-06T02:19:21.141Z,9.53
2018-11-06T02:21:49.362Z,9.74
2018-11-06T02:24:17.566Z,9.95
2018-11-06T02:26:45.789Z,9.74
2018-11-06T02:29:14.013Z,9.79
2018-11-06T02:31:42.242Z,9.84
2018-11-06T02:34:10.463Z,9.56
2018-11-06T02:36:38.714Z,9.41
2018-11-06T02:39:08.098Z,9.43
2018-11-06T02:41:36.349Z,9.68
2018-11-06T02:44:04.592Z,9.51
2018-11-06T02:46:32.841Z,9.23
2018-11-06T02:49:01.103Z,9.49
2018-11-06T02:51:29.434Z,9.30
2018-11-06T02:53:57.666Z,9.15
2018-11-06T02:56:25.897Z,9.29
2018-11-06T02:58:54.101Z,9.38
2018-11-06T03:01:22.322Z,9.31
2018-11-06T03:03:50.558Z,9.39
2018-11-06T03:06:18.757Z,9.30
2018-11-06T03:08:46.986Z,9.48
2018-11-06T03:11:15.222Z,9.46
2018-11-06T03:13:43.473Z,9.49
2018-11-06T03:16:11.706Z,9.54
2018-11-06T03:18:39.917Z,9.40
2018-11-06T03:21:08.146Z,9.62
2018-11-06T03:23:36.350Z,9.60
2018-11-06T03:26:04.590Z,9.55
2018-11-06T03:28:32.805Z,9.43
2018-11-06T03:31:01.030Z,9.55
2018-11-06T03:33:29.257Z,9.44
2018-11-06T03:35:57.483Z,9.54
2018-11-06T03:38:25.682Z,9.47
2018-11-06T03:40:53.911Z,9.32
2018-11-06T03:43:26.486Z,9.27
2018-11-06T03:45:54.693Z,9.45
2018-11-06T03:48:22.932Z,9.46
2018-11-06T03:50:51.146Z,9.42
2018-11-06T03:53:19.361Z,9.17
2018-11-06T03:55:47.593Z,9.25
2018-11-06T03:58:15.838Z,9.12
2018-11-06T04:00:44.058Z,9.25
2018-11-06T04:03:12.314Z,9.41
2018-11-06T04:05:40.524Z,9.27
2018-11-06T04:08:08.753Z,9.22
2018-11-06T04:10:36.991Z,9.38
2018-11-06T04:13:05.239Z,9.43
2018-11-06T04:15:33.461Z,9.46
2018-11-06T04:18:01.666Z,9.34
2018-11-06T04:20:29.884Z,9.23
2018-11-06T04:22:58.126Z,9.41
2018-11-06T04:25:26.322Z,9.43
2018-11-06T04:27:54.539Z,9.50
2018-11-06T04:30:22.771Z,9.69
2018-11-06T04:32:50.994Z,9.71
2018-11-06T04:35:19.238Z,9.60
2018-11-06T04:37:47.451Z,9.71
2018-11-06T04:40:15.657Z,9.62
2018-11-06T04:42:44.014Z,9.63
2018-11-06T04:45:12.920Z,9.61
2018-11-06T04:47:41.153Z,9.57
2018-11-06T04:50:10.973Z,9.74
2018-11-06T04:52:39.357Z,9.86
2018-11-06T04:55:09.020Z,10.06
2018-11-06T04:57:37.238Z,10.16
2018-11-06T05:00:06.815Z,10.34
2018-11-06T05:02:35.102Z,10.49
2018-11-06T05:05:03.379Z,10.29
2018-11-06T05:07:31.625Z,10.04
2018-11-06T05:09:59.834Z,10.04
2018-11-06T05:12:28.074Z,10.04
2018-11-06T05:14:57.327Z,9.84
2018-11-06T05:17:25.554Z,9.67
2018-11-06T05:19:53.832Z,9.72
2018-11-06T05:22:22.062Z,9.75
2018-11-06T05:24:50.348Z,9.82
2018-11-06T05:27:18.576Z,9.76
2018-11-06T05:29:46.778Z,9.89
2018-11-06T05:32:15.031Z,9.98
2018-11-06T05:34:43.514Z,9.74
2018-11-06T05:37:11.650Z,9.61
2018-11-06T05:39:51.006Z,9.65
2018-11-06T05:42:19.213Z,9.58
2018-11-06T05:44:47.589Z,9.63
2018-11-06T05:47:15.789Z,9.60
2018-11-06T05:49:44.011Z,9.46
2018-11-06T05:52:12.238Z,9.66
2018-11-06T05:54:40.551Z,9.68
2018-11-06T05:57:08.815Z,9.69
2018-11-06T05:59:37.025Z,9.72
2018-11-06T06:02:05.323Z,9.54
2018-11-06T06:04:33.530Z,9.49
2018-11-06T06:07:01.768Z,9.59
2018-11-06T06:09:29.974Z,9.83
2018-11-06T06:11:58.329Z,9.77
2018-11-06T06:14:26.548Z,9.98
2018-11-06T06:16:54.829Z,9.95
2018-11-06T06:19:22.970Z,10.12
2018-11-06T06:21:51.214Z,10.06
2018-11-06T06:24:19.456Z,10.09
2018-11-06T06:26:47.669Z,10.09
2018-11-06T06:29:15.938Z,10.03
2018-11-06T06:31:44.163Z,10.29
2018-11-06T06:34:12.414Z,10.09
2018-11-06T06:36:40.644Z,10.05
2018-11-06T06:39:09.826Z,10.04
2018-11-06T06:41:38.306Z,10.06
2018-11-06T06:44:06.726Z,10.08
2018-11-06T06:46:34.964Z,9.93
2018-11-06T06:49:03.185Z,10.11
2018-11-06T06:51:31.434Z,10.03
2018-11-06T06:53:59.891Z,10.22
2018-11-06T06:56:28.031Z,10.20
2018-11-06T06:58:57.163Z,10.18
2018-11-06T07:01:25.488Z,10.15
2018-11-06T07:03:54.113Z,10.38
2018-11-06T07:06:22.338Z,10.44
2018-11-06T07:08:50.585Z,10.47
2018-11-06T07:11:18.870Z,10.55
2018-11-06T07:13:47.100Z,10.53
2018-11-06T07:16:15.543Z,10.47
2018-11-06T07:18:43.775Z,10.52
2018-11-06T07:21:11.987Z,10.21
2018-11-06T07:23:40.201Z,10.54
2018-11-06T07:26:08.446Z,10.70
2018-11-06T07:28:36.707Z,11.00
2018-11-06T07:31:04.902Z,11.24
2018-11-06T07:33:33.132Z,11.43
2018-11-06T07:36:01.346Z,11.35
2018-11-06T07:38:29.591Z,11.52
2018-11-06T07:40:57.866Z,11.86
2018-11-06T07:43:26.069Z,11.90
2018-11-06T07:45:54.303Z,11.90
2018-11-06T07:48:22.589Z,11.82
2018-11-06T07:50:50.839Z,11.77
2018-11-06T07:53:19.115Z,12.03
2018-11-06T07:55:47.389Z,12.10
2018-11-06T07:58:15.570Z,12.07
2018-11-06T08:00:43.800Z,11.79
2018-11-06T08:03:12.155Z,11.80
2018-11-06T08:05:40.368Z,11.90
2018-11-06T08:08:08.597Z,11.89
2018-11-06T08:10:36.876Z,12.03
2018-11-06T08:13:05.424Z,12.54
2018-11-06T08:15:33.662Z,12.56
2018-11-06T08:18:01.909Z,12.46
2018-11-06T08:20:30.140Z,12.42
2018-11-06T08:22:58.337Z,12.33
2018-11-06T08:25:26.566Z,12.34
2018-11-06T08:27:54.912Z,12.22
2018-11-06T08:30:23.103Z,12.43
2018-11-06T08:32:51.480Z,12.50
2018-11-06T08:35:19.483Z,12.16
2018-11-06T08:37:47.714Z,12.29
2018-11-06T08:40:17.163Z,12.23
2018-11-06T08:42:45.391Z,12.09
2018-11-06T08:45:14.778Z,11.62
2018-11-06T08:47:43.892Z,11.78
2018-11-06T08:50:14.610Z,11.77
2018-11-06T08:52:42.945Z,11.93
2018-11-06T08:55:12.287Z,11.76
2018-11-06T08:57:41.277Z,11.96
2018-11-06T09:00:11.604Z,12.05
2018-11-06T09:02:39.925Z,12.20
2018-11-06T09:05:10.102Z,12.09
2018-11-06T09:07:38.467Z,12.31
2018-11-06T09:10:07.799Z,12.12
2018-11-06T09:12:36.149Z,12.30
2018-11-06T09:15:04.590Z,12.34
2018-11-06T09:17:32.833Z,12.20
2018-11-06T09:20:01.086Z,12.55
2018-11-06T09:22:29.316Z,12.54
2018-11-06T09:24:57.578Z,12.61
2018-11-06T09:27:32.523Z,12.83
2018-11-06T09:30:00.771Z,12.84
2018-11-06T09:32:29.023Z,12.98
2018-11-06T09:34:57.297Z,13.01
2018-11-06T09:37:25.494Z,13.18
2018-11-06T09:39:53.770Z,13.24
2018-11-06T09:42:21.991Z,13.34
2018-11-06T09:44:50.281Z,13.08
2018-11-06T09:47:18.566Z,13.31
2018-11-06T09:49:46.858Z,13.50
2018-11-06T09:52:15.395Z,13.27
2018-11-06T09:54:43.623Z,13.61
2018-11-06T09:57:11.871Z,13.70
2018-11-06T09:59:40.104Z,13.49
2018-11-06T10:02:08.358Z,13.62
2018-11-06T10:04:36.570Z,13.46
2018-11-06T10:07:05.658Z,13.40
2018-11-06T10:09:33.542Z,13.46
2018-11-06T10:12:01.804Z,13.18
2018-11-06T10:14:31.107Z,13.40
2018-11-06T10:16:59.350Z,12.95
2018-11-06T10:19:27.570Z,12.98
2018-11-06T10:21:58.040Z,13.26
2018-11-06T10:24:26.265Z,12.82
2018-11-06T10:26:54.474Z,13.16
2018-11-06T10:29:22.710Z,13.15
2018-11-06T10:31:50.941Z,13.15
2018-11-06T10:34:19.201Z,13.17
2018-11-06T10:36:47.455Z,13.48
2018-11-06T10:39:16.761Z,13.37
2018-11-06T10:41:45.039Z,13.52
2018-11-06T10:44:18.314Z,13.65
2018-11-06T10:46:46.525Z,13.65
2018-11-06T10:49:15.294Z,13.63
2018-11-06T10:51:43.550Z,13.49
2018-11-06T10:54:12.738Z,13.42
2018-11-06T10:56:43.078Z,13.67
2018-11-06T10:59:11.382Z,13.98
2018-11-06T11:01:46.033Z,13.83
2018-11-06T11:04:16.828Z,14.03
2018-11-06T11:06:45.118Z,13.90
2018-11-06T11:09:13.456Z,13.90
2018-11-06T11:11:42.768Z,13.90
2018-11-06T11:14:10.994Z,13.74
2018-11-06T11:16:39.231Z,14.17
2018-11-06T11:19:07.463Z,14.34
2018-11-06T11:21:35.782Z,14.55
2018-11-06T11:24:04.053Z,14.66
2018-11-06T11:26:32.302Z,14.61
2018-11-06T11:29:00.542Z,14.62
2018-11-06T11:31:28.886Z,14.91
2018-11-06T11:33:57.225Z,14.96
2018-11-06T11:36:25.435Z,15.01
2018-11-06T11:38:53.655Z,15.25
2018-11-06T11:41:23.014Z,15.36
2018-11-06T11:43:51.235Z,15.31
2018-11-06T11:46:19.478Z,15.21
2018-11-06T11:48:47.748Z,15.11
2018-11-06T11:51:18.089Z,14.72
2018-11-06T11:53:46.350Z,14.91
2018-11-06T11:56:14.569Z,15.09
2018-11-06T11:58:42.801Z,14.95
2018-11-06T12:01:11.025Z,15.24
2018-11-06T12:03:39.242Z,15.36
2018-11-06T12:06:07.474Z,15.53
2018-11-06T12:08:35.754Z,15.48
2018-11-06T12:11:03.987Z,15.43
2018-11-06T12:13:32.226Z,15.50
2018-11-06T12:16:00.442Z,15.79
2018-11-06T12:18:28.718Z,15.85
2018-11-06T12:20:56.940Z,15.71
2018-11-06T12:23:25.171Z,15.74
2018-11-06T12:25:53.526Z,15.87
2018-11-06T12:28:21.778Z,15.93
2018-11-06T12:30:50.003Z,16.03
2018-11-06T12:33:25.123Z,16.25
2018-11-06T12:35:53.348Z,16.34
2018-11-06T12:38:21.576Z,16.34
2018-11-06T12:40:49.818Z,16.39
2018-11-06T12:43:18.077Z,16.21
2018-11-06T12:45:46.287Z,16.38
2018-11-06T12:48:14.506Z,16.51
2018-11-06T12:50:42.737Z,16.29
2018-11-06T12:53:12.043Z,16.51
2018-11-06T12:55:40.286Z,16.56
2018-11-06T12:58:08.522Z,16.53
2018-11-06T13:00:37.014Z,16.38
2018-11-06T13:03:05.979Z,16.35
2018-11-06T13:05:34.259Z,16.60
2018-11-06T13:08:02.494Z,16.58
2018-11-06T13:10:30.731Z,16.63
2018-11-06T13:12:59.026Z,16.65
2018-11-06T13:15:27.305Z,16.66
2018-11-06T13:17:55.498Z,16.79
2018-11-06T13:20:23.714Z,16.74
2018-11-06T13:22:51.951Z,16.79
2018-11-06T13:25:20.169Z,16.64
2018-11-06T13:27:48.375Z,16.79
2018-11-06T13:30:17.908Z,16.71
2018-11-06T13:32:46.858Z,16.80
2018-11-06T13:35:16.231Z,16.46
2018-11-06T13:37:44.499Z,16.33
2018-11-06T13:40:14.066Z,16.39
2018-11-06T13:42:42.454Z,16.54
2018-11-06T13:45:25.912Z,16.46
2018-11-06T13:47:55.039Z,16.29
2018-11-06T13:50:23.286Z,16.29
2018-11-06T13:52:51.528Z,16.31
2018-11-06T13:55:19.759Z,16.39
2018-11-06T13:57:48.077Z,16.51
2018-11-06T14:00:17.978Z,16.57
2018-11-06T14:02:46.363Z,16.41
2018-11-06T14:05:14.921Z,16.47
2018-11-06T14:07:43.253Z,16.50
2018-11-06T14:10:11.490Z,16.51
2018-11-06T14:12:40.176Z,16.39
2018-11-06T14:15:08.492Z,16.42
2018-11-06T14:17:37.022Z,16.51
2018-11-06T14:20:06.629Z,16.30
2018-11-06T14:22:34.885Z,16.55
2018-11-06T14:25:03.135Z,16.34
2018-11-06T14:27:31.656Z,16.31
2018-11-06T14:29:59.833Z,16.26
2018-11-06T14:32:28.114Z,16.35
2018-11-06T14:34:56.449Z,16.39
2018-11-06T14:37:25.922Z,16.32
2018-11-06T14:39:54.169Z,16.32
2018-11-06T14:42:23.484Z,16.05
2018-11-06T14:44:51.687Z,16.08
2018-11-06T14:47:19.953Z,15.93
2018-11-06T14:49:48.165Z,15.88
2018-11-06T14:52:16.414Z,15.88
2018-11-06T14:54:44.658Z,15.81
2018-11-06T14:57:12.921Z,15.56
2018-11-06T14:59:41.174Z,15.48
2018-11-06T15:02:09.473Z,15.56
2018-11-06T15:04:37.719Z,15.39
2018-11-06T15:07:06.014Z,15.45
2018-11-06T15:09:34.292Z,15.39
2018-11-06T15:12:03.691Z,15.38
2018-11-06T15:14:32.030Z,15.33
2018-11-06T15:17:00.277Z,15.16
2018-11-06T15:19:28.567Z,15.34
2018-11-06T15:21:56.844Z,15.32
2018-11-06T15:24:25.080Z,15.39
2018-11-06T15:26:53.306Z,15.33
2018-11-06T15:29:21.521Z,15.35
2018-11-06T15:31:49.764Z,15.10
2018-11-06T15:34:17.978Z,15.25
2018-11-06T15:36:46.222Z,15.14
2018-11-06T15:39:14.465Z,15.11
2018-11-06T15:41:42.738Z,15.13
2018-11-06T15:44:10.929Z,15.09
2018-11-06T15:46:39.166Z,15.09
2018-11-06T15:49:07.573Z,14.96
2018-11-06T15:51:35.777Z,14.98
2018-11-06T15:54:04.049Z,14.95
2018-11-06T15:56:32.310Z,14.84
2018-11-06T15:59:00.546Z,14.83
2018-11-06T16:01:28.951Z,14.78
2018-11-06T16:03:57.240Z,14.75
2018-11-06T16:06:25.494Z,14.73
2018-11-06T16:08:53.737Z,14.46
2018-11-06T16:11:22.005Z,14.49
2018-11-06T16:13:50.249Z,14.49
2018-11-06T16:16:18.468Z,14.64
2018-11-06T16:18:47.039Z,14.59
2018-11-06T16:21:15.278Z,14.38
2018-11-06T16:23:43.493Z,14.47
2018-11-06T16:26:11.710Z,14.42
2018-11-06T16:28:39.934Z,14.49
2018-11-06T16:31:08.169Z,14.59
2018-11-06T16:33:37.038Z,14.37
2018-11-06T16:36:05.382Z,14.45
2018-11-06T16:38:33.622Z,14.30
2018-11-06T16:41:01.878Z,14.23
2018-11-06T16:43:30.126Z,14.28
2018-11-06T16:45:58.359Z,14.22
2018-11-06T16:48:26.688Z,14.26
2018-11-06T16:50:54.848Z,14.34
2018-11-06T16:53:23.053Z,14.22
2018-11-06T16:55:51.295Z,14.12
2018-11-06T16:58:19.508Z,14.28
2018-11-06T17:00:47.872Z,14.20
2018-11-06T17:03:15.980Z,14.18
2018-11-06T17:05:44.226Z,14.36
2018-11-06T17:08:12.454Z,14.21
2018-11-06T17:10:40.699Z,14.15
2018-11-06T17:13:08.908Z,14.09
2018-11-06T17:15:37.142Z,14.20
2018-11-06T17:18:06.102Z,14.16
2018-11-06T17:20:34.367Z,14.18
2018-11-06T17:23:02.583Z,14.16
2018-11-06T17:25:30.875Z,14.21
2018-11-06T17:27:59.095Z,14.14
2018-11-06T17:30:27.325Z,14.11
2018-11-06T17:32:55.578Z,14.22
2018-11-06T17:35:23.802Z,14.03
2018-11-06T17:37:52.016Z,13.99
2018-11-06T17:40:21.175Z,14.03
2018-11-06T17:42:49.418Z,13.97
2018-11-06T17:45:19.130Z,13.75
2018-11-06T17:47:47.316Z,13.70
2018-11-06T17:50:16.373Z,13.86
2018-11-06T17:52:44.808Z,13.75
2018-11-06T17:55:14.547Z,13.64
2018-11-06T17:57:42.776Z,13.60
2018-11-06T18:00:14.485Z,13.72
2018-11-06T18:02:42.956Z,13.54
2018-11-06T18:05:12.397Z,13.51
2018-11-06T18:07:41.277Z,13.61
2018-11-06T18:10:10.674Z,13.49
2018-11-06T18:12:38.906Z,13.28
2018-11-06T18:15:07.222Z,13.38
2018-11-06T18:17:35.518Z,13.48
2018-11-06T18:20:03.763Z,13.52
2018-11-06T18:22:32.121Z,13.30
2018-11-06T18:25:00.380Z,13.47
2018-11-06T18:27:28.568Z,13.47
2018-11-06T18:29:56.850Z,13.50
2018-11-06T18:32:25.086Z,13.28
2018-11-06T18:34:53.297Z,13.38
2018-11-06T18:37:21.521Z,13.15
2018-11-06T18:39:49.766Z,13.25
2018-11-06T18:42:17.989Z,13.28
2018-11-06T18:44:46.239Z,13.38
2018-11-06T18:47:14.494Z,13.47
2018-11-06T18:49:42.829Z,13.54
2018-11-06T18:52:11.014Z,13.48
2018-11-06T18:54:39.277Z,13.51
2018-11-06T18:57:07.533Z,13.59
2018-11-06T18:59:35.873Z,13.66
2018-11-06T19:02:04.119Z,13.48
2018-11-06T19:04:32.488Z,13.61
2018-11-06T19:07:00.603Z,13.50
2018-11-06T19:09:28.830Z,13.60
2018-11-06T19:11:57.071Z,13.65
2018-11-06T19:14:25.307Z,13.78
2018-11-06T19:16:53.577Z,13.58
2018-11-06T19:19:21.741Z,13.57
2018-11-06T19:21:49.969Z,13.59
2018-11-06T19:24:18.228Z,13.37
2018-11-06T19:26:46.484Z,13.43
2018-11-06T19:29:14.747Z,13.30
2018-11-06T19:31:43.029Z,13.45
2018-11-06T19:34:11.410Z,13.41
2018-11-06T19:36:39.847Z,13.43
2018-11-06T19:39:09.841Z,13.54
2018-11-06T19:41:38.121Z,13.34
2018-11-06T19:44:06.706Z,13.35
2018-11-06T19:46:34.953Z,13.39
2018-11-06T19:49:03.196Z,13.50
2018-11-06T19:51:31.405Z,13.35
2018-11-06T19:53:59.656Z,13.44
2018-11-06T19:56:27.933Z,13.31
2018-11-06T19:58:56.111Z,13.38
2018-11-06T20:01:24.346Z,13.35
2018-11-06T20:03:52.562Z,13.42
2018-11-06T20:06:20.803Z,13.31
2018-11-06T20:08:49.122Z,13.37
2018-11-06T20:11:17.366Z,13.24
2018-11-06T20:13:45.614Z,13.37
2018-11-06T20:16:13.835Z,13.43
2018-11-06T20:18:42.405Z,13.42
2018-11-06T20:21:10.622Z,13.44
2018-11-06T20:23:38.882Z,13.38
2018-11-06T20:26:07.114Z,13.26
2018-11-06T20:28:35.350Z,13.35
2018-11-06T20:31:03.586Z,13.27
2018-11-06T20:33:33.590Z,13.23
2018-11-06T20:36:01.755Z,13.24
2018-11-06T20:38:30.031Z,13.19
2018-11-06T20:40:58.270Z,13.12
2018-11-06T20:43:26.507Z,13.16
2018-11-06T20:45:54.790Z,13.09
2018-11-06T20:48:23.024Z,13.07
2018-11-06T20:50:51.286Z,13.13
2018-11-06T20:53:19.589Z,13.03
2018-11-06T20:55:47.900Z,13.00
2018-11-06T20:58:16.085Z,12.85
2018-11-06T21:00:45.370Z,13.07
2018-11-06T21:03:13.650Z,13.00
2018-11-06T21:05:41.944Z,13.09
2018-11-06T21:08:10.115Z,13.08
2018-11-06T21:10:38.416Z,13.16
2018-11-06T21:13:06.605Z,13.17
2018-11-06T21:15:34.826Z,13.12
2018-11-06T21:18:03.167Z,13.01
2018-11-06T21:20:31.280Z,13.15
2018-11-06T21:22:59.521Z,13.13
2018-11-06T21:25:27.939Z,13.21
2018-11-06T21:27:56.038Z,13.12
2018-11-06T21:30:24.297Z,13.23
2018-11-06T21:32:53.435Z,13.14
2018-11-06T21:35:21.673Z,13.15
2018-11-06T21:37:49.923Z,13.03
2018-11-06T21:40:20.401Z,13.17
2018-11-06T21:42:49.083Z,13.03
2018-11-06T21:45:18.794Z,12.88
2018-11-06T21:47:47.929Z,12.95
2018-11-06T21:50:21.973Z,13.02
2018-11-06T21:52:50.435Z,12.90
2018-11-06T21:55:19.706Z,13.03
2018-11-06T21:57:47.958Z,13.04
2018-11-06T22:00:19.681Z,13.00
2018-11-06T22:02:48.272Z,13.18
2018-11-06T22:05:18.027Z,13.12
2018-11-06T22:07:46.479Z,13.12
2018-11-06T22:10:16.204Z,13.20
2018-11-06T22:12:45.061Z,13.27
2018-11-06T22:15:14.306Z,13.18
2018-11-06T22:17:42.566Z,13.35
2018-11-06T22:20:12.688Z,13.23
2018-11-06T22:22:42.525Z,13.17
2018-11-06T22:25:10.749Z,13.23
2018-11-06T22:27:39.059Z,13.15
2018-11-06T22:30:09.734Z,13.14
2018-11-06T22:32:37.967Z,13.20
2018-11-06T22:35:07.491Z,13.28
2018-11-06T22:37:35.722Z,13.15
2018-11-06T22:40:05.537Z,13.16
2018-11-06T22:42:33.779Z,13.25
2018-11-06T22:45:02.071Z,13.19
2018-11-06T22:47:30.329Z,13.30
2018-11-06T22:49:58.598Z,13.32
2018-11-06T22:52:28.512Z,13.25
2018-11-06T22:54:57.361Z,13.28
2018-11-06T22:57:32.355Z,13.32
2018-11-06T23:00:01.693Z,13.26
2018-11-06T23:02:30.006Z,13.16
2018-11-06T23:04:58.313Z,13.24
2018-11-06T23:07:36.147Z,13.07
2018-11-06T23:10:22.476Z,13.08
2018-11-06T23:12:50.640Z,13.10
2018-11-06T23:15:26.354Z,12.98
2018-11-06T23:17:55.505Z,12.92
2018-11-06T23:20:24.161Z,12.92
2018-11-06T23:22:56.734Z,12.99
2018-11-06T23:25:24.974Z,13.05
2018-11-06T23:27:53.241Z,13.00
2018-11-06T23:30:21.510Z,12.98
2018-11-06T23:32:49.816Z,12.98
2018-11-06T23:35:18.090Z,13.15
2018-11-06T23:37:46.359Z,12.94
2018-11-06T23:40:14.708Z,12.96
2018-11-06T23:42:42.966Z,13.06
2018-11-06T23:45:11.261Z,13.04
2018-11-06T23:47:39.498Z,13.11
2018-11-06T23:50:09.027Z,12.99
2018-11-06T23:52:37.264Z,12.97
2018-11-06T23:55:11.587Z,13.03
2018-11-06T23:57:43.403Z,13.06
